sensor_id;sensor_type;location;lat;lon;timestamp;P1;durP1;ratioP1;P2;durP2;ratioP2
4208;SDS011;36320;48.860;2.380;2023-01-24T00:02:26;8.93;;;2.60;;
4208;SDS011;36320;48.860;2.380;2023-01-24T00:04:52;7.93;;;2.30;;
4208;SDS011;36320;48.860;2.380;2023-01-24T00:07:18;8.37;;;2.40;;
4208;SDS011;36320;48.860;2.380;2023-01-24T00:09:44;8.32;;;2.60;;
4208;SDS011;36320;48.860;2.380;2023-01-24T00:12:10;7.47;;;2.60;;
4208;SDS011;36320;48.860;2.380;2023-01-24T00:14:36;9.60;;;2.95;;
4208;SDS011;36320;48.860;2.380;2023-01-24T00:17:02;11.57;;;2.95;;
4208;SDS011;36320;48.860;2.380;2023-01-24T00:19:28;9.30;;;2.85;;
4208;SDS011;36320;48.860;2.380;2023-01-24T00:21:54;6.80;;;2.10;;
4208;SDS011;36320;48.860;2.380;2023-01-24T00:24:20;10.20;;;2.30;;
4208;SDS011;36320;48.860;2.380;2023-01-24T00:26:46;9.00;;;2.60;;
4208;SDS011;36320;48.860;2.380;2023-01-24T00:29:12;8.30;;;2.20;;
4208;SDS011;36320;48.860;2.380;2023-01-24T00:31:38;8.65;;;2.50;;
4208;SDS011;36320;48.860;2.380;2023-01-24T00:34:04;11.20;;;3.60;;
4208;SDS011;36320;48.860;2.380;2023-01-24T00:36:30;8.80;;;2.93;;
4208;SDS011;36320;48.860;2.380;2023-01-24T00:38:56;9.20;;;2.55;;
4208;SDS011;36320;48.860;2.380;2023-01-24T00:41:22;11.20;;;2.38;;
4208;SDS011;36320;48.860;2.380;2023-01-24T00:43:48;9.48;;;2.85;;
4208;SDS011;36320;48.860;2.380;2023-01-24T00:46:14;10.35;;;2.45;;
4208;SDS011;36320;48.860;2.380;2023-01-24T00:48:40;12.18;;;2.17;;
4208;SDS011;36320;48.860;2.380;2023-01-24T00:51:06;10.18;;;2.65;;
4208;SDS011;36320;48.860;2.380;2023-01-24T00:53:32;10.38;;;2.65;;
4208;SDS011;36320;48.860;2.380;2023-01-24T00:55:59;9.27;;;2.22;;
4208;SDS011;36320;48.860;2.380;2023-01-24T00:58:25;10.80;;;2.70;;
4208;SDS011;36320;48.860;2.380;2023-01-24T01:00:53;9.27;;;3.03;;
4208;SDS011;36320;48.860;2.380;2023-01-24T01:03:20;8.70;;;2.83;;
4208;SDS011;36320;48.860;2.380;2023-01-24T01:05:46;8.10;;;2.75;;
4208;SDS011;36320;48.860;2.380;2023-01-24T01:08:12;10.63;;;2.90;;
4208;SDS011;36320;48.860;2.380;2023-01-24T01:10:38;10.88;;;3.40;;
4208;SDS011;36320;48.860;2.380;2023-01-24T01:13:05;10.18;;;2.67;;
4208;SDS011;36320;48.860;2.380;2023-01-24T01:15:31;8.40;;;2.28;;
4208;SDS011;36320;48.860;2.380;2023-01-24T01:17:57;8.43;;;2.75;;
4208;SDS011;36320;48.860;2.380;2023-01-24T01:20:24;7.53;;;2.27;;
4208;SDS011;36320;48.860;2.380;2023-01-24T01:22:50;10.40;;;2.55;;
4208;SDS011;36320;48.860;2.380;2023-01-24T01:25:16;12.40;;;3.00;;
4208;SDS011;36320;48.860;2.380;2023-01-24T01:27:42;9.02;;;2.60;;
4208;SDS011;36320;48.860;2.380;2023-01-24T01:30:08;8.70;;;2.70;;
4208;SDS011;36320;48.860;2.380;2023-01-24T01:32:34;11.40;;;2.60;;
4208;SDS011;36320;48.860;2.380;2023-01-24T01:35:00;12.40;;;3.90;;
4208;SDS011;36320;48.860;2.380;2023-01-24T01:37:26;10.18;;;2.90;;
4208;SDS011;36320;48.860;2.380;2023-01-24T01:39:52;11.13;;;2.80;;
4208;SDS011;36320;48.860;2.380;2023-01-24T01:42:18;10.93;;;3.37;;
4208;SDS011;36320;48.860;2.380;2023-01-24T01:44:45;11.95;;;2.75;;
4208;SDS011;36320;48.860;2.380;2023-01-24T01:47:18;9.95;;;3.17;;
4208;SDS011;36320;48.860;2.380;2023-01-24T01:49:46;10.00;;;2.78;;
4208;SDS011;36320;48.860;2.380;2023-01-24T01:52:15;9.53;;;2.90;;
4208;SDS011;36320;48.860;2.380;2023-01-24T01:54:41;8.30;;;2.25;;
4208;SDS011;36320;48.860;2.380;2023-01-24T01:57:17;12.55;;;2.95;;
4208;SDS011;36320;48.860;2.380;2023-01-24T01:59:46;11.32;;;3.28;;
4208;SDS011;36320;48.860;2.380;2023-01-24T02:02:13;8.70;;;2.73;;
4208;SDS011;36320;48.860;2.380;2023-01-24T02:04:41;9.18;;;2.50;;
4208;SDS011;36320;48.860;2.380;2023-01-24T02:07:10;7.25;;;2.22;;
4208;SDS011;36320;48.860;2.380;2023-01-24T02:09:42;10.48;;;2.50;;
4208;SDS011;36320;48.860;2.380;2023-01-24T02:12:12;9.23;;;3.20;;
4208;SDS011;36320;48.860;2.380;2023-01-24T02:14:39;10.90;;;3.27;;
4208;SDS011;36320;48.860;2.380;2023-01-24T02:17:24;8.70;;;2.90;;
4208;SDS011;36320;48.860;2.380;2023-01-24T02:19:53;10.55;;;2.70;;
4208;SDS011;36320;48.860;2.380;2023-01-24T02:22:43;8.25;;;2.35;;
4208;SDS011;36320;48.860;2.380;2023-01-24T02:25:26;8.35;;;2.53;;
4208;SDS011;36320;48.860;2.380;2023-01-24T02:27:56;11.23;;;3.15;;
4208;SDS011;36320;48.860;2.380;2023-01-24T02:30:23;8.35;;;2.50;;
4208;SDS011;36320;48.860;2.380;2023-01-24T02:32:49;9.55;;;2.70;;
4208;SDS011;36320;48.860;2.380;2023-01-24T02:35:26;10.23;;;2.97;;
4208;SDS011;36320;48.860;2.380;2023-01-24T02:37:52;10.95;;;3.47;;
4208;SDS011;36320;48.860;2.380;2023-01-24T02:40:19;14.13;;;2.70;;
4208;SDS011;36320;48.860;2.380;2023-01-24T02:42:45;10.02;;;2.22;;
4208;SDS011;36320;48.860;2.380;2023-01-24T02:45:18;9.52;;;2.67;;
4208;SDS011;36320;48.860;2.380;2023-01-24T02:47:46;10.50;;;3.10;;
4208;SDS011;36320;48.860;2.380;2023-01-24T02:50:12;8.82;;;2.80;;
4208;SDS011;36320;48.860;2.380;2023-01-24T02:52:38;9.27;;;2.92;;
4208;SDS011;36320;48.860;2.380;2023-01-24T02:55:23;11.15;;;3.30;;
4208;SDS011;36320;48.860;2.380;2023-01-24T02:57:49;10.32;;;2.88;;
4208;SDS011;36320;48.860;2.380;2023-01-24T03:00:31;8.20;;;2.43;;
4208;SDS011;36320;48.860;2.380;2023-01-24T03:02:57;11.77;;;3.10;;
4208;SDS011;36320;48.860;2.380;2023-01-24T03:05:23;12.60;;;3.20;;
4208;SDS011;36320;48.860;2.380;2023-01-24T03:07:49;9.40;;;2.60;;
4208;SDS011;36320;48.860;2.380;2023-01-24T03:10:16;8.10;;;2.00;;
4208;SDS011;36320;48.860;2.380;2023-01-24T03:12:43;10.32;;;2.92;;
4208;SDS011;36320;48.860;2.380;2023-01-24T03:15:28;8.75;;;2.60;;
4208;SDS011;36320;48.860;2.380;2023-01-24T03:18:13;9.30;;;3.15;;
4208;SDS011;36320;48.860;2.380;2023-01-24T03:21:00;8.75;;;2.65;;
4208;SDS011;36320;48.860;2.380;2023-01-24T03:23:45;11.10;;;2.88;;
4208;SDS011;36320;48.860;2.380;2023-01-24T03:26:30;11.30;;;3.00;;
4208;SDS011;36320;48.860;2.380;2023-01-24T03:29:14;11.73;;;3.10;;
4208;SDS011;36320;48.860;2.380;2023-01-24T03:31:59;10.25;;;2.70;;
4208;SDS011;36320;48.860;2.380;2023-01-24T03:34:43;11.40;;;3.38;;
4208;SDS011;36320;48.860;2.380;2023-01-24T03:37:19;10.93;;;2.40;;
4208;SDS011;36320;48.860;2.380;2023-01-24T03:40:05;10.02;;;3.50;;
4208;SDS011;36320;48.860;2.380;2023-01-24T03:42:33;10.38;;;3.60;;
4208;SDS011;36320;48.860;2.380;2023-01-24T03:44:59;13.05;;;2.92;;
4208;SDS011;36320;48.860;2.380;2023-01-24T03:47:25;10.55;;;3.00;;
4208;SDS011;36320;48.860;2.380;2023-01-24T03:49:51;11.13;;;3.35;;
4208;SDS011;36320;48.860;2.380;2023-01-24T03:52:36;9.13;;;2.85;;
4208;SDS011;36320;48.860;2.380;2023-01-24T03:55:11;10.33;;;2.30;;
4208;SDS011;36320;48.860;2.380;2023-01-24T03:57:43;15.38;;;2.95;;
4208;SDS011;36320;48.860;2.380;2023-01-24T04:00:11;11.70;;;3.27;;
4208;SDS011;36320;48.860;2.380;2023-01-24T04:02:37;10.93;;;3.42;;
4208;SDS011;36320;48.860;2.380;2023-01-24T04:05:12;10.20;;;3.33;;
4208;SDS011;36320;48.860;2.380;2023-01-24T04:07:38;9.50;;;3.10;;
4208;SDS011;36320;48.860;2.380;2023-01-24T04:10:05;9.88;;;2.65;;
4208;SDS011;36320;48.860;2.380;2023-01-24T04:12:37;10.77;;;2.80;;
4208;SDS011;36320;48.860;2.380;2023-01-24T04:15:03;10.55;;;2.78;;
4208;SDS011;36320;48.860;2.380;2023-01-24T04:17:51;10.75;;;3.10;;
4208;SDS011;36320;48.860;2.380;2023-01-24T04:20:25;10.75;;;3.00;;
4208;SDS011;36320;48.860;2.380;2023-01-24T04:22:51;9.20;;;2.70;;
4208;SDS011;36320;48.860;2.380;2023-01-24T04:25:30;13.30;;;2.85;;
4208;SDS011;36320;48.860;2.380;2023-01-24T04:28:05;11.50;;;3.30;;
4208;SDS011;36320;48.860;2.380;2023-01-24T04:30:36;10.55;;;3.00;;
4208;SDS011;36320;48.860;2.380;2023-01-24T04:33:03;10.30;;;3.47;;
4208;SDS011;36320;48.860;2.380;2023-01-24T04:35:29;12.20;;;2.97;;
4208;SDS011;36320;48.860;2.380;2023-01-24T04:38:14;11.45;;;3.40;;
4208;SDS011;36320;48.860;2.380;2023-01-24T04:40:41;9.82;;;2.80;;
4208;SDS011;36320;48.860;2.380;2023-01-24T04:43:10;8.15;;;2.65;;
4208;SDS011;36320;48.860;2.380;2023-01-24T04:45:47;8.60;;;2.70;;
4208;SDS011;36320;48.860;2.380;2023-01-24T04:48:13;11.97;;;2.30;;
4208;SDS011;36320;48.860;2.380;2023-01-24T04:50:38;8.87;;;2.80;;
4208;SDS011;36320;48.860;2.380;2023-01-24T04:53:05;9.85;;;2.97;;
4208;SDS011;36320;48.860;2.380;2023-01-24T04:55:31;11.00;;;3.42;;
4208;SDS011;36320;48.860;2.380;2023-01-24T04:57:57;12.45;;;2.92;;
4208;SDS011;36320;48.860;2.380;2023-01-24T05:00:23;11.57;;;3.30;;
4208;SDS011;36320;48.860;2.380;2023-01-24T05:02:50;8.27;;;2.40;;
4208;SDS011;36320;48.860;2.380;2023-01-24T05:05:16;12.35;;;3.60;;
4208;SDS011;36320;48.860;2.380;2023-01-24T05:07:42;9.57;;;2.80;;
4208;SDS011;36320;48.860;2.380;2023-01-24T05:10:08;8.45;;;2.80;;
4208;SDS011;36320;48.860;2.380;2023-01-24T05:12:34;12.90;;;3.85;;
4208;SDS011;36320;48.860;2.380;2023-01-24T05:15:00;9.40;;;2.70;;
4208;SDS011;36320;48.860;2.380;2023-01-24T05:17:26;8.80;;;2.65;;
4208;SDS011;36320;48.860;2.380;2023-01-24T05:19:52;9.43;;;2.80;;
4208;SDS011;36320;48.860;2.380;2023-01-24T05:22:18;9.47;;;3.00;;
4208;SDS011;36320;48.860;2.380;2023-01-24T05:24:44;13.50;;;2.90;;
4208;SDS011;36320;48.860;2.380;2023-01-24T05:27:10;11.98;;;3.25;;
4208;SDS011;36320;48.860;2.380;2023-01-24T05:29:36;10.52;;;2.70;;
4208;SDS011;36320;48.860;2.380;2023-01-24T05:32:03;11.07;;;3.30;;
4208;SDS011;36320;48.860;2.380;2023-01-24T05:34:29;8.82;;;2.63;;
4208;SDS011;36320;48.860;2.380;2023-01-24T05:36:55;9.27;;;2.80;;
4208;SDS011;36320;48.860;2.380;2023-01-24T05:39:21;12.13;;;3.00;;
4208;SDS011;36320;48.860;2.380;2023-01-24T05:41:47;9.65;;;2.35;;
4208;SDS011;36320;48.860;2.380;2023-01-24T05:44:13;7.60;;;2.45;;
4208;SDS011;36320;48.860;2.380;2023-01-24T05:46:39;10.45;;;2.42;;
4208;SDS011;36320;48.860;2.380;2023-01-24T05:49:07;9.00;;;2.40;;
4208;SDS011;36320;48.860;2.380;2023-01-24T05:51:33;9.85;;;2.50;;
4208;SDS011;36320;48.860;2.380;2023-01-24T05:53:59;9.73;;;2.50;;
4208;SDS011;36320;48.860;2.380;2023-01-24T05:56:25;11.40;;;2.95;;
4208;SDS011;36320;48.860;2.380;2023-01-24T05:58:52;7.60;;;2.40;;
4208;SDS011;36320;48.860;2.380;2023-01-24T06:01:19;8.05;;;2.30;;
4208;SDS011;36320;48.860;2.380;2023-01-24T06:03:46;11.82;;;2.60;;
4208;SDS011;36320;48.860;2.380;2023-01-24T06:06:14;8.13;;;2.35;;
4208;SDS011;36320;48.860;2.380;2023-01-24T06:08:41;8.23;;;2.40;;
4208;SDS011;36320;48.860;2.380;2023-01-24T06:11:13;8.50;;;2.50;;
4208;SDS011;36320;48.860;2.380;2023-01-24T06:13:40;9.10;;;2.67;;
4208;SDS011;36320;48.860;2.380;2023-01-24T06:16:13;11.38;;;3.05;;
4208;SDS011;36320;48.860;2.380;2023-01-24T06:18:40;8.57;;;3.03;;
4208;SDS011;36320;48.860;2.380;2023-01-24T06:23:38;9.30;;;2.80;;
4208;SDS011;36320;48.860;2.380;2023-01-24T06:26:05;9.15;;;2.80;;
4208;SDS011;36320;48.860;2.380;2023-01-24T06:28:31;8.52;;;2.72;;
4208;SDS011;36320;48.860;2.380;2023-01-24T06:31:00;12.10;;;3.10;;
4208;SDS011;36320;48.860;2.380;2023-01-24T06:33:43;11.63;;;2.67;;
4208;SDS011;36320;48.860;2.380;2023-01-24T06:38:37;10.67;;;2.90;;
4208;SDS011;36320;48.860;2.380;2023-01-24T06:41:04;11.60;;;2.80;;
4208;SDS011;36320;48.860;2.380;2023-01-24T06:43:37;10.88;;;3.17;;
4208;SDS011;36320;48.860;2.380;2023-01-24T06:46:03;10.48;;;3.47;;
4208;SDS011;36320;48.860;2.380;2023-01-24T06:48:29;9.13;;;2.58;;
4208;SDS011;36320;48.860;2.380;2023-01-24T06:50:55;9.33;;;2.80;;
4208;SDS011;36320;48.860;2.380;2023-01-24T06:53:21;9.37;;;2.50;;
4208;SDS011;36320;48.860;2.380;2023-01-24T06:55:47;10.88;;;3.40;;
4208;SDS011;36320;48.860;2.380;2023-01-24T06:58:13;10.48;;;2.42;;
4208;SDS011;36320;48.860;2.380;2023-01-24T07:00:39;9.25;;;2.20;;
4208;SDS011;36320;48.860;2.380;2023-01-24T07:03:06;10.30;;;3.10;;
4208;SDS011;36320;48.860;2.380;2023-01-24T07:05:32;11.90;;;3.90;;
4208;SDS011;36320;48.860;2.380;2023-01-24T07:07:59;9.75;;;3.00;;
4208;SDS011;36320;48.860;2.380;2023-01-24T07:10:25;14.50;;;3.90;;
4208;SDS011;36320;48.860;2.380;2023-01-24T07:12:51;9.17;;;2.30;;
4208;SDS011;36320;48.860;2.380;2023-01-24T07:15:17;10.00;;;3.10;;
4208;SDS011;36320;48.860;2.380;2023-01-24T07:17:44;12.03;;;3.30;;
4208;SDS011;36320;48.860;2.380;2023-01-24T07:20:11;10.03;;;3.40;;
4208;SDS011;36320;48.860;2.380;2023-01-24T07:22:38;10.10;;;3.10;;
4208;SDS011;36320;48.860;2.380;2023-01-24T07:25:05;12.40;;;3.40;;
4208;SDS011;36320;48.860;2.380;2023-01-24T07:27:31;11.80;;;3.08;;
4208;SDS011;36320;48.860;2.380;2023-01-24T07:29:57;12.75;;;3.60;;
4208;SDS011;36320;48.860;2.380;2023-01-24T07:32:24;9.70;;;2.85;;
4208;SDS011;36320;48.860;2.380;2023-01-24T07:34:50;11.63;;;3.55;;
4208;SDS011;36320;48.860;2.380;2023-01-24T07:37:16;8.20;;;2.53;;
4208;SDS011;36320;48.860;2.380;2023-01-24T07:39:46;10.57;;;3.22;;
4208;SDS011;36320;48.860;2.380;2023-01-24T07:42:12;11.93;;;3.35;;
4208;SDS011;36320;48.860;2.380;2023-01-24T07:44:38;10.67;;;3.50;;
4208;SDS011;36320;48.860;2.380;2023-01-24T07:47:04;11.38;;;2.88;;
4208;SDS011;36320;48.860;2.380;2023-01-24T07:49:30;13.23;;;3.80;;
4208;SDS011;36320;48.860;2.380;2023-01-24T07:51:56;11.27;;;2.92;;
4208;SDS011;36320;48.860;2.380;2023-01-24T07:54:22;13.77;;;3.22;;
4208;SDS011;36320;48.860;2.380;2023-01-24T07:56:48;11.18;;;3.60;;
4208;SDS011;36320;48.860;2.380;2023-01-24T07:59:16;9.57;;;3.50;;
4208;SDS011;36320;48.860;2.380;2023-01-24T08:01:42;12.23;;;3.97;;
4208;SDS011;36320;48.860;2.380;2023-01-24T08:04:08;8.35;;;2.80;;
4208;SDS011;36320;48.860;2.380;2023-01-24T08:06:34;10.05;;;3.25;;
4208;SDS011;36320;48.860;2.380;2023-01-24T08:09:01;8.43;;;2.88;;
4208;SDS011;36320;48.860;2.380;2023-01-24T08:11:27;11.35;;;3.25;;
4208;SDS011;36320;48.860;2.380;2023-01-24T08:13:53;9.45;;;3.10;;
4208;SDS011;36320;48.860;2.380;2023-01-24T08:16:19;13.25;;;3.30;;
4208;SDS011;36320;48.860;2.380;2023-01-24T08:18:48;11.40;;;3.13;;
4208;SDS011;36320;48.860;2.380;2023-01-24T08:21:15;16.43;;;3.83;;
4208;SDS011;36320;48.860;2.380;2023-01-24T08:23:41;11.43;;;3.55;;
4208;SDS011;36320;48.860;2.380;2023-01-24T08:26:07;12.27;;;3.70;;
4208;SDS011;36320;48.860;2.380;2023-01-24T08:28:33;8.05;;;2.22;;
4208;SDS011;36320;48.860;2.380;2023-01-24T08:31:00;12.68;;;4.00;;
4208;SDS011;36320;48.860;2.380;2023-01-24T08:33:28;11.90;;;2.33;;
4208;SDS011;36320;48.860;2.380;2023-01-24T08:35:55;12.45;;;3.63;;
4208;SDS011;36320;48.860;2.380;2023-01-24T08:38:21;10.93;;;3.67;;
4208;SDS011;36320;48.860;2.380;2023-01-24T08:40:48;13.63;;;3.43;;
4208;SDS011;36320;48.860;2.380;2023-01-24T08:43:16;16.85;;;5.20;;
4208;SDS011;36320;48.860;2.380;2023-01-24T08:45:42;24.30;;;7.22;;
4208;SDS011;36320;48.860;2.380;2023-01-24T08:48:08;17.83;;;7.00;;
4208;SDS011;36320;48.860;2.380;2023-01-24T08:50:36;19.02;;;6.97;;
4208;SDS011;36320;48.860;2.380;2023-01-24T08:53:02;19.63;;;7.18;;
4208;SDS011;36320;48.860;2.380;2023-01-24T08:55:28;23.45;;;7.28;;
4208;SDS011;36320;48.860;2.380;2023-01-24T08:58:01;19.23;;;6.73;;
4208;SDS011;36320;48.860;2.380;2023-01-24T09:00:28;19.25;;;7.60;;
4208;SDS011;36320;48.860;2.380;2023-01-24T09:02:54;27.27;;;7.73;;
4208;SDS011;36320;48.860;2.380;2023-01-24T09:05:19;25.23;;;7.32;;
4208;SDS011;36320;48.860;2.380;2023-01-24T09:07:46;18.90;;;6.80;;
4208;SDS011;36320;48.860;2.380;2023-01-24T09:10:12;19.70;;;6.70;;
4208;SDS011;36320;48.860;2.380;2023-01-24T09:12:37;24.02;;;7.72;;
4208;SDS011;36320;48.860;2.380;2023-01-24T09:15:05;27.25;;;8.07;;
4208;SDS011;36320;48.860;2.380;2023-01-24T09:17:32;19.88;;;7.40;;
4208;SDS011;36320;48.860;2.380;2023-01-24T09:19:59;22.48;;;7.85;;
4208;SDS011;36320;48.860;2.380;2023-01-24T09:22:26;24.45;;;6.88;;
4208;SDS011;36320;48.860;2.380;2023-01-24T09:24:52;21.35;;;7.60;;
4208;SDS011;36320;48.860;2.380;2023-01-24T09:27:18;19.17;;;6.20;;
4208;SDS011;36320;48.860;2.380;2023-01-24T09:29:44;21.90;;;7.63;;
4208;SDS011;36320;48.860;2.380;2023-01-24T09:32:11;22.40;;;7.60;;
4208;SDS011;36320;48.860;2.380;2023-01-24T09:34:38;22.98;;;7.13;;
4208;SDS011;36320;48.860;2.380;2023-01-24T09:37:11;19.85;;;7.60;;
4208;SDS011;36320;48.860;2.380;2023-01-24T09:39:41;23.98;;;8.55;;
4208;SDS011;36320;48.860;2.380;2023-01-24T09:42:22;22.50;;;8.73;;
4208;SDS011;36320;48.860;2.380;2023-01-24T09:44:58;18.63;;;6.82;;
4208;SDS011;36320;48.860;2.380;2023-01-24T09:48:14;20.58;;;7.90;;
4208;SDS011;36320;48.860;2.380;2023-01-24T09:50:25;18.83;;;6.87;;
4208;SDS011;36320;48.860;2.380;2023-01-24T09:53:29;20.10;;;7.57;;
4208;SDS011;36320;48.860;2.380;2023-01-24T09:56:02;26.45;;;7.97;;
4208;SDS011;36320;48.860;2.380;2023-01-24T09:58:30;20.02;;;6.75;;
4208;SDS011;36320;48.860;2.380;2023-01-24T10:01:02;20.23;;;7.05;;
4208;SDS011;36320;48.860;2.380;2023-01-24T10:03:34;16.77;;;6.30;;
4208;SDS011;36320;48.860;2.380;2023-01-24T10:06:21;19.58;;;6.90;;
4208;SDS011;36320;48.860;2.380;2023-01-24T10:08:56;19.63;;;6.93;;
4208;SDS011;36320;48.860;2.380;2023-01-24T10:17:07;17.90;;;6.75;;
4208;SDS011;36320;48.860;2.380;2023-01-24T10:25:10;16.10;;;6.70;;
4208;SDS011;36320;48.860;2.380;2023-01-24T10:27:43;18.60;;;6.80;;
4208;SDS011;36320;48.860;2.380;2023-01-24T10:30:16;20.85;;;7.13;;
4208;SDS011;36320;48.860;2.380;2023-01-24T10:32:52;19.35;;;6.85;;
4208;SDS011;36320;48.860;2.380;2023-01-24T10:35:29;20.65;;;7.47;;
4208;SDS011;36320;48.860;2.380;2023-01-24T10:38:02;17.95;;;6.65;;
4208;SDS011;36320;48.860;2.380;2023-01-24T10:40:32;19.48;;;6.75;;
4208;SDS011;36320;48.860;2.380;2023-01-24T10:43:03;16.45;;;6.57;;
4208;SDS011;36320;48.860;2.380;2023-01-24T10:50:41;20.50;;;6.60;;
4208;SDS011;36320;48.860;2.380;2023-01-24T10:53:21;18.33;;;7.00;;
4208;SDS011;36320;48.860;2.380;2023-01-24T10:56:01;16.88;;;6.45;;
4208;SDS011;36320;48.860;2.380;2023-01-24T10:58:39;18.92;;;6.50;;
4208;SDS011;36320;48.860;2.380;2023-01-24T11:01:24;18.42;;;6.40;;
4208;SDS011;36320;48.860;2.380;2023-01-24T11:03:58;20.00;;;7.18;;
4208;SDS011;36320;48.860;2.380;2023-01-24T11:09:01;16.48;;;6.82;;
4208;SDS011;36320;48.860;2.380;2023-01-24T11:11:34;17.70;;;6.50;;
4208;SDS011;36320;48.860;2.380;2023-01-24T11:14:04;22.77;;;7.65;;
4208;SDS011;36320;48.860;2.380;2023-01-24T11:22:27;17.05;;;7.00;;
4208;SDS011;36320;48.860;2.380;2023-01-24T11:25:02;18.23;;;5.90;;
4208;SDS011;36320;48.860;2.380;2023-01-24T11:27:29;17.00;;;6.85;;
4208;SDS011;36320;48.860;2.380;2023-01-24T11:35:45;17.50;;;6.50;;
4208;SDS011;36320;48.860;2.380;2023-01-24T11:40:52;17.25;;;6.43;;
4208;SDS011;36320;48.860;2.380;2023-01-24T11:49:31;19.27;;;5.90;;
4208;SDS011;36320;48.860;2.380;2023-01-24T11:52:03;20.20;;;6.68;;
4208;SDS011;36320;48.860;2.380;2023-01-24T11:58:10;18.27;;;6.30;;
4208;SDS011;36320;48.860;2.380;2023-01-24T12:01:04;18.38;;;5.88;;
4208;SDS011;36320;48.860;2.380;2023-01-24T12:03:44;17.63;;;6.60;;
4208;SDS011;36320;48.860;2.380;2023-01-24T12:06:36;18.58;;;6.47;;
4208;SDS011;36320;48.860;2.380;2023-01-24T12:09:14;20.27;;;6.57;;
4208;SDS011;36320;48.860;2.380;2023-01-24T12:22:17;19.63;;;6.70;;
4208;SDS011;36320;48.860;2.380;2023-01-24T12:24:48;15.95;;;5.97;;
4208;SDS011;36320;48.860;2.380;2023-01-24T12:27:21;17.50;;;6.35;;
4208;SDS011;36320;48.860;2.380;2023-01-24T12:35:20;18.67;;;6.90;;
4208;SDS011;36320;48.860;2.380;2023-01-24T12:38:04;21.65;;;6.60;;
4208;SDS011;36320;48.860;2.380;2023-01-24T12:40:54;21.73;;;6.93;;
4208;SDS011;36320;48.860;2.380;2023-01-24T12:43:32;27.13;;;8.50;;
4208;SDS011;36320;48.860;2.380;2023-01-24T12:46:17;19.45;;;7.20;;
4208;SDS011;36320;48.860;2.380;2023-01-24T12:51:54;27.47;;;11.40;;
4208;SDS011;36320;48.860;2.380;2023-01-24T13:00:00;18.35;;;6.80;;
4208;SDS011;36320;48.860;2.380;2023-01-24T13:02:31;17.75;;;6.43;;
4208;SDS011;36320;48.860;2.380;2023-01-24T13:11:04;17.90;;;6.43;;
4208;SDS011;36320;48.860;2.380;2023-01-24T13:13:44;21.00;;;6.80;;
4208;SDS011;36320;48.860;2.380;2023-01-24T13:25:24;20.77;;;7.38;;
4208;SDS011;36320;48.860;2.380;2023-01-24T13:33:40;19.02;;;7.38;;
4208;SDS011;36320;48.860;2.380;2023-01-24T13:36:17;23.48;;;7.20;;
4208;SDS011;36320;48.860;2.380;2023-01-24T13:38:45;18.67;;;6.40;;
4208;SDS011;36320;48.860;2.380;2023-01-24T13:41:13;20.88;;;7.03;;
4208;SDS011;36320;48.860;2.380;2023-01-24T13:43:57;19.38;;;6.55;;
4208;SDS011;36320;48.860;2.380;2023-01-24T13:49:34;17.05;;;6.25;;
4208;SDS011;36320;48.860;2.380;2023-01-24T13:55:01;16.23;;;6.03;;
4208;SDS011;36320;48.860;2.380;2023-01-24T14:05:56;16.60;;;6.15;;
4208;SDS011;36320;48.860;2.380;2023-01-24T14:16:54;19.35;;;6.10;;
4208;SDS011;36320;48.860;2.380;2023-01-24T14:24:27;18.60;;;6.20;;
4208;SDS011;36320;48.860;2.380;2023-01-24T14:27:23;25.27;;;7.75;;
4208;SDS011;36320;48.860;2.380;2023-01-24T14:29:46;21.77;;;8.48;;
4208;SDS011;36320;48.860;2.380;2023-01-24T14:37:39;18.77;;;6.80;;
4208;SDS011;36320;48.860;2.380;2023-01-24T14:40:21;20.77;;;7.40;;
4208;SDS011;36320;48.860;2.380;2023-01-24T14:42:49;16.10;;;6.00;;
4208;SDS011;36320;48.860;2.380;2023-01-24T14:45:24;21.38;;;7.13;;
4208;SDS011;36320;48.860;2.380;2023-01-24T14:47:52;16.92;;;6.50;;
4208;SDS011;36320;48.860;2.380;2023-01-24T14:52:56;17.65;;;5.90;;
4208;SDS011;36320;48.860;2.380;2023-01-24T14:57:52;17.85;;;6.82;;
4208;SDS011;36320;48.860;2.380;2023-01-24T15:00:19;19.42;;;6.90;;
4208;SDS011;36320;48.860;2.380;2023-01-24T15:05:34;19.70;;;7.10;;
4208;SDS011;36320;48.860;2.380;2023-01-24T15:08:02;19.15;;;6.72;;
4208;SDS011;36320;48.860;2.380;2023-01-24T15:10:41;21.70;;;7.20;;
4208;SDS011;36320;48.860;2.380;2023-01-24T15:13:08;19.00;;;6.57;;
4208;SDS011;36320;48.860;2.380;2023-01-24T15:15:42;22.83;;;6.60;;
4208;SDS011;36320;48.860;2.380;2023-01-24T15:18:19;20.20;;;6.75;;
4208;SDS011;36320;48.860;2.380;2023-01-24T15:20:49;19.00;;;6.33;;
4208;SDS011;36320;48.860;2.380;2023-01-24T15:23:17;17.05;;;6.90;;
4208;SDS011;36320;48.860;2.380;2023-01-24T15:25:46;18.95;;;6.10;;
4208;SDS011;36320;48.860;2.380;2023-01-24T15:30:52;19.77;;;6.75;;
4208;SDS011;36320;48.860;2.380;2023-01-24T15:33:19;24.52;;;6.80;;
4208;SDS011;36320;48.860;2.380;2023-01-24T15:35:46;19.38;;;7.10;;
4208;SDS011;36320;48.860;2.380;2023-01-24T15:38:24;18.10;;;6.90;;
4208;SDS011;36320;48.860;2.380;2023-01-24T15:41:12;18.57;;;6.53;;
4208;SDS011;36320;48.860;2.380;2023-01-24T15:46:32;17.88;;;7.03;;
4208;SDS011;36320;48.860;2.380;2023-01-24T15:51:57;17.48;;;5.82;;
4208;SDS011;36320;48.860;2.380;2023-01-24T15:54:28;20.33;;;6.57;;
4208;SDS011;36320;48.860;2.380;2023-01-24T15:56:55;19.38;;;7.10;;
4208;SDS011;36320;48.860;2.380;2023-01-24T15:59:24;17.90;;;6.60;;
4208;SDS011;36320;48.860;2.380;2023-01-24T16:01:50;20.15;;;7.18;;
4208;SDS011;36320;48.860;2.380;2023-01-24T16:04:20;19.47;;;7.30;;
4208;SDS011;36320;48.860;2.380;2023-01-24T16:06:47;18.73;;;6.40;;
4208;SDS011;36320;48.860;2.380;2023-01-24T16:09:13;17.08;;;6.80;;
4208;SDS011;36320;48.860;2.380;2023-01-24T16:11:39;15.93;;;5.70;;
4208;SDS011;36320;48.860;2.380;2023-01-24T16:14:09;18.50;;;6.85;;
4208;SDS011;36320;48.860;2.380;2023-01-24T16:16:45;19.17;;;6.95;;
4208;SDS011;36320;48.860;2.380;2023-01-24T16:19:15;17.80;;;7.03;;
4208;SDS011;36320;48.860;2.380;2023-01-24T16:21:43;23.02;;;8.57;;
4208;SDS011;36320;48.860;2.380;2023-01-24T16:24:10;21.15;;;6.50;;
4208;SDS011;36320;48.860;2.380;2023-01-24T16:26:37;15.95;;;5.95;;
4208;SDS011;36320;48.860;2.380;2023-01-24T16:29:27;21.75;;;7.47;;
4208;SDS011;36320;48.860;2.380;2023-01-24T16:31:55;17.73;;;6.40;;
4208;SDS011;36320;48.860;2.380;2023-01-24T16:34:21;19.23;;;6.40;;
4208;SDS011;36320;48.860;2.380;2023-01-24T16:36:47;20.88;;;7.43;;
4208;SDS011;36320;48.860;2.380;2023-01-24T16:39:14;17.92;;;5.95;;
4208;SDS011;36320;48.860;2.380;2023-01-24T16:41:45;19.17;;;6.78;;
4208;SDS011;36320;48.860;2.380;2023-01-24T16:44:12;14.93;;;5.97;;
4208;SDS011;36320;48.860;2.380;2023-01-24T16:46:39;17.88;;;6.72;;
4208;SDS011;36320;48.860;2.380;2023-01-24T16:49:11;16.42;;;5.70;;
4208;SDS011;36320;48.860;2.380;2023-01-24T16:51:37;17.23;;;6.80;;
4208;SDS011;36320;48.860;2.380;2023-01-24T16:54:03;15.13;;;6.07;;
4208;SDS011;36320;48.860;2.380;2023-01-24T16:56:28;17.48;;;6.43;;
4208;SDS011;36320;48.860;2.380;2023-01-24T16:58:54;18.13;;;6.40;;
4208;SDS011;36320;48.860;2.380;2023-01-24T17:01:20;16.80;;;5.47;;
4208;SDS011;36320;48.860;2.380;2023-01-24T17:03:49;16.65;;;6.57;;
4208;SDS011;36320;48.860;2.380;2023-01-24T17:06:16;15.27;;;5.38;;
4208;SDS011;36320;48.860;2.380;2023-01-24T17:08:42;17.98;;;6.00;;
4208;SDS011;36320;48.860;2.380;2023-01-24T17:11:09;18.80;;;6.10;;
4208;SDS011;36320;48.860;2.380;2023-01-24T17:13:36;16.80;;;5.95;;
4208;SDS011;36320;48.860;2.380;2023-01-24T17:16:06;16.70;;;5.95;;
4208;SDS011;36320;48.860;2.380;2023-01-24T17:18:33;15.70;;;5.93;;
4208;SDS011;36320;48.860;2.380;2023-01-24T17:21:06;22.73;;;6.82;;
4208;SDS011;36320;48.860;2.380;2023-01-24T17:23:35;19.40;;;6.53;;
4208;SDS011;36320;48.860;2.380;2023-01-24T17:26:08;19.35;;;7.72;;
4208;SDS011;36320;48.860;2.380;2023-01-24T17:28:36;15.20;;;5.50;;
4208;SDS011;36320;48.860;2.380;2023-01-24T17:31:06;16.45;;;6.30;;